createdAt,value
2019-05-16T00:02:28.353Z,29.13
2019-05-16T00:05:09.165Z,29.17
2019-05-16T00:07:48.985Z,29.19
2019-05-16T00:10:25.360Z,29.31
2019-05-16T00:13:02.819Z,29.31
2019-05-16T00:15:40.423Z,29.38
2019-05-16T00:18:17.921Z,29.44
2019-05-16T00:20:57.869Z,29.52
2019-05-16T00:23:37.722Z,29.47
2019-05-16T00:26:15.755Z,29.81
2019-05-16T00:28:53.507Z,29.77
2019-05-16T00:31:31.274Z,29.63
2019-05-16T00:34:09.630Z,29.45
2019-05-16T00:36:48.760Z,29.27
2019-05-16T00:39:28.025Z,29.06
2019-05-16T00:42:08.604Z,29.13
2019-05-16T00:44:45.167Z,29.14
2019-05-16T00:47:22.888Z,29.25
2019-05-16T00:50:00.459Z,29.12
2019-05-16T00:52:39.736Z,28.91
2019-05-16T00:55:18.364Z,28.89
2019-05-16T00:57:58.196Z,28.82
2019-05-16T01:00:50.800Z,28.72
2019-05-16T01:03:29.033Z,28.81
2019-05-16T01:06:16.535Z,28.72
2019-05-16T01:08:48.569Z,28.68
2019-05-16T01:11:24.961Z,28.64
2019-05-16T01:14:03.044Z,28.63
2019-05-16T01:16:40.663Z,28.57
2019-05-16T01:19:18.651Z,28.47
2019-05-16T01:21:58.818Z,28.38
2019-05-16T01:24:38.631Z,28.30
2019-05-16T01:27:18.478Z,28.26
2019-05-16T01:29:58.359Z,28.20
2019-05-16T01:32:38.523Z,28.14
2019-05-16T01:35:18.678Z,28.12
2019-05-16T01:37:57.956Z,28.29
2019-05-16T01:40:34.466Z,28.16
2019-05-16T01:43:12.238Z,28.18
2019-05-16T01:45:50.495Z,28.24
2019-05-16T01:48:29.264Z,28.30
2019-05-16T01:51:07.764Z,28.41
2019-05-16T01:53:45.214Z,28.40
2019-05-16T01:56:23.661Z,28.46
2019-05-16T01:59:01.688Z,28.60
2019-05-16T02:01:39.178Z,28.64
2019-05-16T02:04:18.338Z,28.86
2019-05-16T02:06:58.462Z,29.18
2019-05-16T02:09:35.401Z,29.23
2019-05-16T02:12:12.891Z,29.24
2019-05-16T02:14:50.235Z,29.36
2019-05-16T02:17:29.128Z,29.36
2019-05-16T02:20:08.667Z,29.36
2019-05-16T02:22:48.006Z,29.14
2019-05-16T02:25:27.676Z,29.27
2019-05-16T02:28:10.706Z,29.33
2019-05-16T02:30:51.354Z,29.66
2019-05-16T02:33:31.689Z,29.84
2019-05-16T02:36:12.416Z,29.71
2019-05-16T02:38:51.419Z,29.09
2019-05-16T02:41:31.154Z,29.25
2019-05-16T02:44:12.136Z,29.24
2019-05-16T02:46:50.875Z,29.41
2019-05-16T02:49:30.608Z,29.15
2019-05-16T02:52:10.562Z,29.28
2019-05-16T02:54:46.870Z,29.61
2019-05-16T02:57:24.398Z,29.65
2019-05-16T03:00:02.501Z,29.61
2019-05-16T03:02:42.177Z,29.69
2019-05-16T03:05:20.823Z,29.66
2019-05-16T03:08:01.307Z,29.44
2019-05-16T03:10:41.243Z,29.54
2019-05-16T03:13:18.000Z,29.75
2019-05-16T03:15:55.381Z,29.81
2019-05-16T03:18:33.814Z,29.54
2019-05-16T03:21:12.113Z,29.51
2019-05-16T03:23:50.796Z,29.52
2019-05-16T03:26:31.282Z,29.49
2019-05-16T03:29:07.198Z,29.33
2019-05-16T03:31:45.801Z,29.49
2019-05-16T03:34:25.836Z,29.54
2019-05-16T03:37:04.543Z,29.52
2019-05-16T03:39:42.378Z,29.69
2019-05-16T03:42:20.456Z,29.84
2019-05-16T03:45:01.604Z,29.86
2019-05-16T03:47:42.229Z,29.89
2019-05-16T03:50:17.339Z,29.88
2019-05-16T03:52:55.134Z,30.18
2019-05-16T03:55:32.889Z,30.24
2019-05-16T03:58:11.782Z,29.81
2019-05-16T04:01:01.831Z,29.99
2019-05-16T04:03:41.283Z,30.18
2019-05-16T04:06:22.136Z,29.91
2019-05-16T04:09:01.644Z,30.17
2019-05-16T04:11:38.436Z,30.25
2019-05-16T04:14:21.183Z,30.39
2019-05-16T04:16:56.900Z,30.15
2019-05-16T04:19:34.220Z,30.29
2019-05-16T04:22:15.799Z,30.33
2019-05-16T04:24:54.797Z,30.36
2019-05-16T04:27:32.089Z,30.33
2019-05-16T04:30:11.701Z,30.45
2019-05-16T04:32:51.106Z,30.55
2019-05-16T04:35:31.554Z,30.40
2019-05-16T04:38:11.325Z,30.35
2019-05-16T04:40:51.311Z,30.42
2019-05-16T04:43:26.521Z,30.66
2019-05-16T04:46:05.171Z,30.72
2019-05-16T04:48:42.166Z,30.84
2019-05-16T04:51:21.926Z,31.02
2019-05-16T04:54:01.980Z,31.18
2019-05-16T04:56:41.201Z,30.85
2019-05-16T04:59:20.875Z,31.22
2019-05-16T05:02:01.626Z,31.20
2019-05-16T05:04:36.976Z,31.28
2019-05-16T05:07:15.129Z,31.17
2019-05-16T05:09:53.314Z,31.31
2019-05-16T05:12:31.551Z,31.52
2019-05-16T05:15:11.284Z,31.42
2019-05-16T05:17:50.279Z,31.31
2019-05-16T05:20:30.242Z,31.31
2019-05-16T05:23:06.401Z,31.29
2019-05-16T05:25:43.826Z,31.14
2019-05-16T05:28:21.931Z,31.27
2019-05-16T05:30:59.913Z,31.31
2019-05-16T05:33:41.370Z,31.46
2019-05-16T05:36:17.164Z,31.22
2019-05-16T05:39:09.046Z,31.34
2019-05-16T05:41:36.623Z,31.76
2019-05-16T05:44:14.254Z,31.81
2019-05-16T05:46:52.328Z,31.58
2019-05-16T05:49:30.400Z,31.89
2019-05-16T05:52:11.204Z,32.04
2019-05-16T05:54:46.842Z,31.98
2019-05-16T05:57:24.016Z,31.85
2019-05-16T06:00:02.101Z,31.99
2019-05-16T06:02:40.531Z,32.38
2019-05-16T06:05:20.178Z,32.12
2019-05-16T06:07:56.867Z,32.22
2019-05-16T06:10:34.865Z,32.20
2019-05-16T06:13:12.787Z,32.50
2019-05-16T06:15:50.998Z,32.45
2019-05-16T06:18:30.489Z,32.31
2019-05-16T06:21:11.238Z,31.85
2019-05-16T06:23:47.440Z,32.11
2019-05-16T06:26:25.059Z,32.25
2019-05-16T06:29:02.651Z,32.31
2019-05-16T06:31:41.201Z,32.10
2019-05-16T06:34:21.002Z,32.09
2019-05-16T06:37:00.338Z,32.37
2019-05-16T06:39:42.028Z,32.61
2019-05-16T06:42:16.011Z,32.29
2019-05-16T06:44:53.892Z,32.58
2019-05-16T06:47:31.929Z,32.78
2019-05-16T06:50:11.400Z,32.68
2019-05-16T06:52:50.200Z,32.59
2019-05-16T06:55:29.542Z,32.61
2019-05-16T06:58:06.817Z,32.77
2019-05-16T07:00:44.316Z,32.66
2019-05-16T07:03:22.580Z,33.03
2019-05-16T07:06:00.530Z,32.91
2019-05-16T07:08:40.316Z,33.04
2019-05-16T07:11:20.139Z,33.35
2019-05-16T07:14:00.462Z,33.37
2019-05-16T07:16:40.292Z,33.47
2019-05-16T07:19:17.019Z,33.54
2019-05-16T07:21:55.167Z,33.89
2019-05-16T07:24:33.715Z,33.90
2019-05-16T07:27:12.390Z,33.68
2019-05-16T07:29:50.851Z,33.74
2019-05-16T07:32:30.166Z,34.02
2019-05-16T07:35:10.011Z,34.10
2019-05-16T07:37:49.815Z,34.05
2019-05-16T07:40:27.176Z,34.20
2019-05-16T07:43:04.357Z,34.09
2019-05-16T07:45:42.385Z,33.91
2019-05-16T07:48:22.496Z,33.89
2019-05-16T07:51:00.511Z,33.74
2019-05-16T07:53:40.304Z,33.95
2019-05-16T07:56:20.178Z,34.01
2019-05-16T07:58:57.015Z,33.96
2019-05-16T08:01:34.167Z,33.96
2019-05-16T08:04:11.356Z,34.10
2019-05-16T08:06:50.202Z,34.15
2019-05-16T08:09:30.641Z,33.94
2019-05-16T08:12:10.560Z,33.62
2019-05-16T08:14:49.999Z,33.97
2019-05-16T08:17:27.023Z,34.06
2019-05-16T08:20:05.756Z,33.62
2019-05-16T08:22:43.572Z,33.56
2019-05-16T08:25:21.325Z,33.83
2019-05-16T08:28:01.153Z,33.94
2019-05-16T08:30:41.271Z,33.68
2019-05-16T08:33:17.443Z,33.76
2019-05-16T08:35:54.675Z,33.88
2019-05-16T08:38:33.449Z,33.75
2019-05-16T08:41:14.482Z,33.66
2019-05-16T08:43:52.929Z,33.51
2019-05-16T08:46:32.079Z,33.65
2019-05-16T08:49:12.278Z,33.88
2019-05-16T08:51:52.866Z,33.53
2019-05-16T08:54:31.855Z,33.66
2019-05-16T08:57:26.098Z,33.57
2019-05-16T08:59:52.311Z,33.50
2019-05-16T09:05:06.670Z,32.97
2019-05-16T09:07:43.512Z,33.07
2019-05-16T09:10:25.132Z,33.40
2019-05-16T09:13:00.289Z,32.87
2019-05-16T09:15:39.010Z,32.83
2019-05-16T09:18:17.960Z,33.08
2019-05-16T09:20:57.816Z,32.95
2019-05-16T09:23:38.324Z,32.77
2019-05-16T09:26:16.955Z,32.83
2019-05-16T09:28:56.740Z,32.97
2019-05-16T09:31:33.631Z,32.67
2019-05-16T09:34:10.507Z,32.67
2019-05-16T09:36:48.483Z,32.73
2019-05-16T09:39:27.737Z,32.59
2019-05-16T09:42:08.801Z,32.42
2019-05-16T09:44:44.518Z,32.50
2019-05-16T09:47:22.474Z,32.73
2019-05-16T09:50:00.223Z,32.94
2019-05-16T09:52:38.083Z,32.85
2019-05-16T09:55:17.537Z,32.66
2019-05-16T09:57:58.204Z,32.79
2019-05-16T10:00:33.866Z,32.97
2019-05-16T10:03:11.699Z,32.81
2019-05-16T10:05:49.260Z,32.64
2019-05-16T10:08:27.030Z,32.67
2019-05-16T10:11:06.331Z,32.66
2019-05-16T10:13:46.925Z,32.49
2019-05-16T10:16:23.173Z,32.53
2019-05-16T10:19:00.601Z,32.45
2019-05-16T10:21:37.975Z,32.38
2019-05-16T10:24:16.531Z,32.49
2019-05-16T10:26:54.449Z,32.47
2019-05-16T10:29:31.810Z,32.34
2019-05-16T10:32:09.264Z,32.51
2019-05-16T10:34:47.006Z,32.60
2019-05-16T10:37:26.717Z,32.56
2019-05-16T10:40:03.578Z,32.15
2019-05-16T10:42:41.500Z,32.04
2019-05-16T10:45:19.950Z,32.22
2019-05-16T10:47:57.423Z,32.24
2019-05-16T10:50:36.994Z,32.44
2019-05-16T10:53:41.846Z,32.42
2019-05-16T10:55:56.944Z,32.45
2019-05-16T10:58:41.646Z,32.12
2019-05-16T11:01:24.438Z,32.30
2019-05-16T11:03:52.684Z,32.34
2019-05-16T11:06:30.930Z,32.51
2019-05-16T11:09:09.285Z,32.17
2019-05-16T11:11:47.738Z,32.07
2019-05-16T11:14:27.941Z,32.16
2019-05-16T11:17:07.356Z,32.13
2019-05-16T11:19:46.505Z,32.26
2019-05-16T11:22:23.840Z,32.02
2019-05-16T11:25:01.297Z,32.15
2019-05-16T11:27:39.781Z,32.06
2019-05-16T11:30:18.552Z,32.12
2019-05-16T11:32:56.720Z,32.11
2019-05-16T11:35:33.994Z,32.11
2019-05-16T11:38:12.773Z,31.95
2019-05-16T11:40:49.356Z,31.93
2019-05-16T11:43:27.856Z,31.80
2019-05-16T11:46:05.232Z,32.08
2019-05-16T11:48:43.318Z,32.05
2019-05-16T11:51:20.706Z,31.98
2019-05-16T11:53:59.924Z,31.93
2019-05-16T11:56:37.083Z,31.73
2019-05-16T11:59:15.048Z,32.05
2019-05-16T12:01:53.273Z,31.90
2019-05-16T12:04:30.578Z,31.95
2019-05-16T12:07:07.781Z,31.81
2019-05-16T12:09:50.572Z,31.68
2019-05-16T12:12:26.966Z,31.51
2019-05-16T12:15:03.530Z,31.65
2019-05-16T12:17:41.189Z,31.66
2019-05-16T12:20:19.979Z,31.73
2019-05-16T12:22:57.163Z,31.48
2019-05-16T12:25:36.718Z,31.35
2019-05-16T12:28:13.699Z,31.31
2019-05-16T12:30:51.749Z,31.70
2019-05-16T12:33:30.290Z,31.46
2019-05-16T12:36:08.823Z,31.35
2019-05-16T12:38:46.761Z,31.15
2019-05-16T12:41:28.516Z,31.10
2019-05-16T12:44:03.758Z,31.08
2019-05-16T12:46:40.814Z,31.12
2019-05-16T12:49:18.042Z,31.09
2019-05-16T12:51:58.507Z,31.06
2019-05-16T12:54:36.948Z,30.96
2019-05-16T12:57:14.822Z,30.95
2019-05-16T12:59:52.710Z,30.94
2019-05-16T13:02:31.575Z,30.95
2019-05-16T13:05:09.793Z,30.97
2019-05-16T13:07:47.808Z,30.94
2019-05-16T13:10:27.144Z,31.18
2019-05-16T13:13:07.542Z,31.16
2019-05-16T13:15:47.254Z,31.14
2019-05-16T13:18:23.565Z,31.26
2019-05-16T13:21:00.455Z,31.31
2019-05-16T13:23:39.255Z,31.07
2019-05-16T13:26:17.627Z,31.01
2019-05-16T13:28:57.764Z,31.00
2019-05-16T13:31:37.740Z,31.24
2019-05-16T13:34:17.757Z,31.01
2019-05-16T13:36:54.655Z,31.24
2019-05-16T13:39:32.063Z,31.14
2019-05-16T13:42:09.258Z,31.33
2019-05-16T13:44:47.959Z,31.21
2019-05-16T13:47:26.877Z,31.06
2019-05-16T13:50:04.254Z,31.07
2019-05-16T13:52:42.546Z,31.18
2019-05-16T13:55:20.609Z,31.27
2019-05-16T13:57:57.755Z,31.27
2019-05-16T14:00:37.561Z,31.38
2019-05-16T14:03:17.743Z,31.30
2019-05-16T14:05:54.732Z,31.18
2019-05-16T14:08:33.192Z,31.35
2019-05-16T14:11:10.957Z,31.44
2019-05-16T14:13:48.229Z,31.30
2019-05-16T14:16:26.978Z,31.31
2019-05-16T14:19:04.029Z,31.49
2019-05-16T14:21:41.289Z,31.41
2019-05-16T14:24:18.810Z,31.29
2019-05-16T14:26:57.375Z,31.05
2019-05-16T14:29:37.517Z,31.26
2019-05-16T14:32:19.067Z,31.27
2019-05-16T14:34:53.058Z,31.40
2019-05-16T14:37:31.605Z,31.22
2019-05-16T14:40:10.635Z,31.33
2019-05-16T14:42:48.645Z,31.51
2019-05-16T14:45:26.479Z,31.40
2019-05-16T14:48:07.155Z,31.43
2019-05-16T14:50:43.681Z,31.44
2019-05-16T14:53:21.249Z,31.43
2019-05-16T14:55:58.932Z,31.21
2019-05-16T14:58:38.020Z,31.14
2019-05-16T15:01:17.539Z,31.25
2019-05-16T15:03:56.403Z,31.47
2019-05-16T15:06:33.413Z,31.22
2019-05-16T15:09:12.294Z,30.94
2019-05-16T15:11:50.488Z,31.30
2019-05-16T15:14:28.278Z,31.38
2019-05-16T15:17:07.061Z,31.41
2019-05-16T15:19:46.847Z,31.29
2019-05-16T15:22:24.002Z,31.32
2019-05-16T15:25:01.480Z,31.33
2019-05-16T15:27:39.595Z,31.20
2019-05-16T15:30:17.695Z,31.10
2019-05-16T15:32:56.942Z,31.34
2019-05-16T15:35:34.356Z,31.27
2019-05-16T15:38:12.004Z,31.14
2019-05-16T15:40:50.206Z,31.00
2019-05-16T15:43:29.434Z,31.08
2019-05-16T15:46:08.007Z,31.10
2019-05-16T15:48:48.788Z,31.12
2019-05-16T15:51:27.516Z,31.00
2019-05-16T15:54:06.775Z,31.15
2019-05-16T15:56:46.707Z,31.19
2019-05-16T15:59:27.013Z,30.99
2019-05-16T16:02:03.441Z,30.96
2019-05-16T16:04:41.079Z,31.25
2019-05-16T16:07:18.973Z,31.35
2019-05-16T16:09:57.687Z,31.27
2019-05-16T16:12:37.623Z,31.19
2019-05-16T16:15:17.382Z,31.26
2019-05-16T16:17:57.333Z,31.42
2019-05-16T16:20:33.277Z,31.25
2019-05-16T16:23:11.259Z,31.14
2019-05-16T16:25:50.644Z,31.41
2019-05-16T16:28:28.391Z,31.27
2019-05-16T16:31:07.647Z,31.17
2019-05-16T16:33:45.692Z,31.13
2019-05-16T16:36:22.944Z,31.14
2019-05-16T16:39:00.264Z,31.35
2019-05-16T16:41:38.798Z,31.33
2019-05-16T16:44:17.790Z,31.14
2019-05-16T16:46:57.346Z,31.16
2019-05-16T16:49:38.923Z,31.16
2019-05-16T16:52:12.808Z,30.96
2019-05-16T16:54:52.206Z,30.93
2019-05-16T16:57:29.913Z,31.03
2019-05-16T17:00:07.786Z,31.09
2019-05-16T17:03:01.197Z,31.07
2019-05-16T17:05:26.516Z,30.82
2019-05-16T17:08:03.989Z,30.92
2019-05-16T17:10:41.179Z,31.14
2019-05-16T17:13:18.668Z,31.36
2019-05-16T17:15:56.988Z,31.21
2019-05-16T17:18:36.910Z,31.27
2019-05-16T17:21:16.912Z,31.18
2019-05-16T17:23:54.000Z,31.17
2019-05-16T17:26:32.142Z,30.91
2019-05-16T17:29:09.216Z,31.07
2019-05-16T17:31:53.656Z,31.29
2019-05-16T17:34:26.707Z,31.38
2019-05-16T17:37:08.987Z,31.19
2019-05-16T17:39:44.249Z,31.26
2019-05-16T17:42:21.737Z,31.19
2019-05-16T17:44:59.124Z,31.26
2019-05-16T17:47:38.025Z,31.19
2019-05-16T17:50:17.281Z,31.35
2019-05-16T17:52:55.060Z,31.50
2019-05-16T17:55:33.098Z,31.51
2019-05-16T17:58:10.683Z,31.37
2019-05-16T18:00:48.354Z,31.23
2019-05-16T18:03:27.285Z,31.39
2019-05-16T18:06:06.275Z,31.50
2019-05-16T18:08:46.681Z,31.39
2019-05-16T18:11:22.565Z,31.17
2019-05-16T18:13:59.846Z,31.14
2019-05-16T18:16:51.644Z,31.05
2019-05-16T18:19:17.382Z,31.06
2019-05-16T18:21:57.118Z,30.86
2019-05-16T18:24:37.145Z,30.99
2019-05-16T18:27:17.228Z,31.28
2019-05-16T18:29:55.459Z,31.32
2019-05-16T18:32:32.947Z,31.28
2019-05-16T18:35:10.724Z,31.47
2019-05-16T18:37:47.780Z,31.55
2019-05-16T18:40:27.140Z,31.61
2019-05-16T18:43:04.384Z,31.31
2019-05-16T18:45:43.212Z,31.19
2019-05-16T18:48:20.493Z,31.40
2019-05-16T18:50:58.664Z,31.46
2019-05-16T18:53:37.847Z,31.10
2019-05-16T18:56:16.925Z,31.15
2019-05-16T18:58:54.280Z,31.03
2019-05-16T19:01:32.444Z,30.98
2019-05-16T19:04:09.872Z,30.76
2019-05-16T19:06:47.880Z,31.01
2019-05-16T19:09:26.794Z,31.18
2019-05-16T19:12:06.575Z,31.13
2019-05-16T19:14:44.495Z,30.96
2019-05-16T19:17:24.869Z,31.08
2019-05-16T19:20:01.347Z,31.32
2019-05-16T19:22:39.644Z,31.28
2019-05-16T19:25:18.513Z,31.30
2019-05-16T19:27:57.005Z,31.34
2019-05-16T19:30:34.216Z,31.43
2019-05-16T19:33:12.624Z,31.31
2019-05-16T19:35:50.338Z,31.34
2019-05-16T19:38:29.330Z,31.31
2019-05-16T19:41:08.127Z,30.96
2019-05-16T19:43:46.641Z,30.73
2019-05-16T19:46:26.978Z,30.80
2019-05-16T19:49:03.703Z,30.94
2019-05-16T19:51:40.963Z,30.91
2019-05-16T19:54:19.367Z,30.87
2019-05-16T19:56:59.596Z,31.01
2019-05-16T19:59:37.107Z,31.15
2019-05-16T20:02:16.551Z,31.09
2019-05-16T20:04:56.170Z,30.86
2019-05-16T20:07:33.175Z,30.79
2019-05-16T20:10:10.904Z,30.98
2019-05-16T20:12:48.649Z,30.90
2019-05-16T20:15:27.702Z,31.00
2019-05-16T20:18:07.433Z,30.97
2019-05-16T20:20:47.093Z,31.02
2019-05-16T20:23:27.553Z,30.87
2019-05-16T20:26:07.689Z,30.81
2019-05-16T20:28:47.565Z,30.89
2019-05-16T20:31:27.179Z,30.69
2019-05-16T20:34:09.101Z,30.60
2019-05-16T20:36:46.467Z,30.62
2019-05-16T20:39:22.329Z,30.69
2019-05-16T20:41:59.924Z,30.75
2019-05-16T20:44:38.130Z,30.59
2019-05-16T20:47:16.670Z,30.46
2019-05-16T20:49:53.782Z,30.49
2019-05-16T20:52:30.990Z,30.54
2019-05-16T20:55:08.346Z,30.59
2019-05-16T20:57:48.516Z,30.68
2019-05-16T21:00:29.330Z,30.73
2019-05-16T21:03:07.694Z,30.82
2019-05-16T21:05:48.019Z,31.00
2019-05-16T21:08:26.619Z,30.85
2019-05-16T21:11:06.367Z,30.76
2019-05-16T21:13:43.631Z,30.46
2019-05-16T21:16:20.584Z,30.53
2019-05-16T21:18:58.250Z,30.64
2019-05-16T21:21:36.933Z,30.74
2019-05-16T21:24:14.456Z,30.70
2019-05-16T21:26:51.962Z,30.87
2019-05-16T21:29:32.340Z,30.96
2019-05-16T21:32:10.559Z,31.01
2019-05-16T21:34:48.858Z,30.92
2019-05-16T21:37:26.916Z,31.04
2019-05-16T21:40:07.903Z,31.04
2019-05-16T21:42:46.335Z,31.10
2019-05-16T21:45:23.895Z,30.96
2019-05-16T21:48:01.388Z,30.86
2019-05-16T21:50:42.522Z,30.86
2019-05-16T21:53:20.977Z,30.80
2019-05-16T21:55:58.689Z,30.88
2019-05-16T21:58:38.514Z,30.86
2019-05-16T22:01:19.150Z,30.90
2019-05-16T22:03:57.425Z,30.71
2019-05-16T22:06:36.587Z,30.63
2019-05-16T22:09:13.798Z,30.56
2019-05-16T22:11:53.813Z,30.63
2019-05-16T22:14:36.849Z,30.69
2019-05-16T22:17:16.811Z,30.72
2019-05-16T22:19:56.269Z,30.78
2019-05-16T22:22:33.872Z,30.76
2019-05-16T22:25:11.711Z,30.51
2019-05-16T22:27:49.622Z,30.42
2019-05-16T22:30:27.373Z,30.50
2019-05-16T22:33:09.327Z,30.54
2019-05-16T22:35:49.504Z,30.44
2019-05-16T22:38:26.805Z,30.46
2019-05-16T22:41:06.787Z,30.34
2019-05-16T22:43:46.690Z,30.30
2019-05-16T22:46:26.701Z,30.22
2019-05-16T22:49:04.129Z,30.21
2019-05-16T22:51:41.682Z,30.08
2019-05-16T22:54:19.423Z,30.02
2019-05-16T22:56:57.339Z,30.03
2019-05-16T22:59:35.509Z,30.17
2019-05-16T23:02:13.203Z,30.14
2019-05-16T23:04:51.711Z,30.20
2019-05-16T23:07:30.046Z,30.11
2019-05-16T23:10:07.771Z,29.94
2019-05-16T23:12:45.704Z,30.25
2019-05-16T23:15:23.405Z,30.31
2019-05-16T23:18:00.182Z,30.32
2019-05-16T23:20:38.445Z,30.51
2019-05-16T23:23:17.434Z,30.50
2019-05-16T23:25:56.928Z,30.56
2019-05-16T23:28:36.575Z,30.54
2019-05-16T23:31:12.689Z,30.69
2019-05-16T23:33:49.751Z,30.96
2019-05-16T23:36:27.238Z,30.71
2019-05-16T23:39:06.323Z,30.74
2019-05-16T23:41:44.019Z,30.72
2019-05-16T23:44:21.520Z,30.38
2019-05-16T23:46:59.229Z,30.39
2019-05-16T23:49:37.244Z,30.64
2019-05-16T23:52:16.652Z,30.62
2019-05-16T23:54:53.307Z,30.44
2019-05-16T23:57:31.406Z,30.26
